Last 24 Hours

Modesto Jr College

15 Minute Data | America/Los_Angeles
as of 9/17/19 3:51 PM PDT
Date & Time Temp (°F) RH (%) Dew Pt (°F) Wind Spd (mph) Wind Dir (°) Wind Gust (mph) Latest Rain (In) Daily Rain (In) Daily Min Temp (°F) Daily Max Temp (°F)
9/17/19 - 1545 79.6 33 48.0 4.4 WNW | 299 10.1 0.00 0.00 52.4 80.5
9/17/19 - 1530 80.0 33 48.2 4.9 W | 268 11.8 0.00 0.00 52.4 80.5
9/17/19 - 1515 80.1 33 48.7 4.5 WSW | 245 8.8 0.00 0.00 52.4 80.5
9/17/19 - 1500 78.8 37 50.1 4.0 NW | 312 9.0 0.00 0.00 52.4 79.6
9/17/19 - 1445 78.2 38 50.3 4.0 NNW | 345 8.6 0.00 0.00 52.4 78.7
9/17/19 - 1430 77.9 38 50.3 5.8 NW | 323 10.3 0.00 0.00 52.4 78.4
9/17/19 - 1415 77.3 41 51.8 5.3 NW | 324 10.3 0.00 0.00 52.4 78.0
9/17/19 - 1400 76.7 43 52.5 5.7 NW | 326 11.6 0.00 0.00 52.4 77.4
9/17/19 - 1345 76.6 45 53.5 6.4 NW | 321 11.6 0.00 0.00 52.4 77.3
9/17/19 - 1330 76.4 45 53.4 5.6 WNW | 295 11.2 0.00 0.00 52.4 77.3
9/17/19 - 1315 75.8 47 54.2 6.0 WNW | 296 11.0 0.00 0.00 52.4 76.3
9/17/19 - 1300 75.1 48 54.3 5.3 WNW | 301 11.2 0.00 0.00 52.4 75.8
9/17/19 - 1245 74.2 50 54.6 5.8 WNW | 300 11.0 0.00 0.00 52.4 74.9
9/17/19 - 1230 73.5 54 55.8 5.1 WNW | 303 11.0 0.00 0.00 52.4 74.1
9/17/19 - 1215 73.1 55 56.2 5.4 W | 281 12.9 0.00 0.00 52.4 74.0
9/17/19 - 1200 71.7 57 55.7 6.7 WNW | 284 11.2 0.00 0.00 52.4 72.4
9/17/19 - 1145 70.9 59 55.8 5.2 NW | 304 11.0 0.00 0.00 52.4 71.7
9/17/19 - 1130 69.8 61 55.6 6.0 NW | 306 11.2 0.00 0.00 52.4 70.4
9/17/19 - 1115 69.3 61 55.1 7.2 WNW | 301 13.2 0.00 0.00 52.4 69.8
9/17/19 - 1100 69.1 60 54.7 7.2 NW | 308 14.7 0.00 0.00 52.4 69.5
9/17/19 - 1045 68.5 60 54.1 6.8 NW | 305 11.6 0.00 0.00 52.4 69.2
9/17/19 - 1030 68.1 60 53.6 7.2 WNW | 301 11.8 0.00 0.00 52.4 69.1
9/17/19 - 1015 67.5 60 53.1 6.8 NW | 306 11.8 0.00 0.00 52.4 68.1
9/17/19 - 1000 67.1 62 53.6 6.3 WNW | 302 13.8 0.00 0.00 52.4 68.1
9/17/19 - 0945 65.9 64 53.5 5.2 NW | 308 9.4 0.00 0.00 52.4 66.6
9/17/19 - 0930 64.8 64 52.6 6.7 WNW | 301 11.8 0.00 0.00 52.4 65.9
9/17/19 - 0915 63.8 67 52.8 6.1 NW | 308 11.8 0.00 0.00 52.4 64.6
9/17/19 - 0900 62.6 71 53.0 5.1 WNW | 300 9.9 0.00 0.00 52.4 63.3
9/17/19 - 0845 61.0 75 53.2 4.1 WNW | 303 7.2 0.00 0.00 52.4 61.8
9/17/19 - 0830 59.1 81 53.4 2.8 NW | 309 6.4 0.00 0.00 52.4 60.1
9/17/19 - 0815 57.2 87 53.4 0.9 NW | 319 2.2 0.00 0.00 52.4 58.5
9/17/19 - 0800 55.4 89 52.3 1.5 NW | 319 2.8 0.00 0.00 52.4 58.5
9/17/19 - 0745 55.1 91 52.4 0.6 NW | 312 2.0 0.00 0.00 52.4 58.5
9/17/19 - 0730 53.6 92 51.4 1.0 W | 265 2.4 0.00 0.00 52.4 58.5
9/17/19 - 0715 52.6 92 50.3 1.2 WSW | 250 2.0 0.00 0.00 52.4 58.5
9/17/19 - 0700 52.7 91 50.2 1.3 WSW | 256 2.2 0.00 0.00 52.4 58.5
9/17/19 - 0645 53.0 91 50.5 1.6 WNW | 295 3.1 0.00 0.00 52.7 58.5
9/17/19 - 0630 53.4 90 50.6 1.3 NW | 322 3.5 0.00 0.00 52.8 58.5
9/17/19 - 0615 54.1 90 51.3 1.5 NNW | 335 3.9 0.00 0.00 53.5 58.5
9/17/19 - 0600 54.2 88 50.9 1.8 WNW | 291 2.8 0.00 0.00 53.8 58.5
9/17/19 - 0545 55.0 87 51.3 2.1 NW | 317 4.6 0.00 0.00 54.6 58.5
9/17/19 - 0530 55.3 87 51.4 2.5 N | 356 5.0 0.00 0.00 54.8 58.5
9/17/19 - 0515 55.7 86 51.4 2.8 N | 10 4.6 0.00 0.00 54.8 58.5
9/17/19 - 0500 56.0 85 51.4 2.9 N | 11 5.0 0.00 0.00 54.8 58.5
9/17/19 - 0445 56.1 85 51.7 3.8 N | 7 6.8 0.00 0.00 54.8 58.5
9/17/19 - 0430 55.9 86 51.7 3.5 N | 8 5.5 0.00 0.00 54.8 58.5
9/17/19 - 0415 56.0 86 51.9 2.5 N | 358 3.7 0.00 0.00 54.8 58.5
9/17/19 - 0400 56.1 86 52.1 3.3 N | 0 6.4 0.00 0.00 54.8 58.5
9/17/19 - 0345 56.0 87 52.2 3.5 N | 353 6.4 0.00 0.00 54.8 58.5
9/17/19 - 0330 55.6 88 52.1 3.6 N | 354 6.1 0.00 0.00 54.8 58.5
9/17/19 - 0315 55.1 89 51.9 2.8 NNE | 14 5.9 0.00 0.00 54.8 58.5
9/17/19 - 0300 55.2 89 51.9 2.0 N | 357 3.5 0.00 0.00 54.9 58.5
9/17/19 - 0245 55.2 88 51.9 2.4 N | 3 3.5 0.00 0.00 55.0 58.5
9/17/19 - 0230 55.6 87 51.8 2.9 NNE | 16 3.9 0.00 0.00 55.1 58.5
9/17/19 - 0215 56.1 85 51.8 3.0 NNE | 30 5.0 0.00 0.00 55.8 58.5
9/17/19 - 0200 56.7 83 51.6 3.0 NNE | 29 5.9 0.00 0.00 56.2 58.5
9/17/19 - 0145 57.6 79 51.3 2.8 NNE | 17 4.4 0.00 0.00 57.0 58.5
9/17/19 - 0130 57.9 77 50.8 3.1 N | 354 7.2 0.00 0.00 57.0 58.5
9/17/19 - 0115 57.1 80 51.1 2.2 N | 349 4.2 0.00 0.00 57.0 57.4
9/17/19 - 0100 57.4 80 51.3 2.2 NNW | 327 3.5 0.00 0.11 57.1 76.3
9/17/19 - 0045 57.7 79 51.3 1.8 NW | 311 3.9 0.00 0.11 57.3 76.3
9/17/19 - 0030 58.0 79 51.5 3.0 NW | 317 6.4 0.00 0.11 57.3 76.3
9/17/19 - 0015 58.0 79 51.4 3.7 WNW | 291 6.8 0.00 0.11 57.3 76.3
9/17/19 - 0000 58.4 77 51.4 3.4 WNW | 289 6.1 0.00 0.11 57.3 76.3
9/16/19 - 2345 58.8 77 51.4 3.4 WNW | 295 6.1 0.00 0.11 57.3 76.3
9/16/19 - 2330 58.8 77 51.6 3.8 NW | 304 7.0 0.00 0.11 57.3 76.3
9/16/19 - 2315 58.3 79 51.8 4.1 WNW | 302 7.9 0.00 0.11 57.3 76.3
9/16/19 - 2300 57.5 82 52.0 3.2 WNW | 300 7.0 0.00 0.11 57.3 76.3
9/16/19 - 2245 57.9 80 51.7 1.2 WNW | 285 2.8 0.00 0.11 57.4 76.3
9/16/19 - 2230 58.7 78 51.8 1.6 W | 271 3.7 0.00 0.11 57.9 76.3
9/16/19 - 2215 59.5 76 52.0 2.2 WNW | 299 3.7 0.00 0.11 57.9 76.3
9/16/19 - 2200 59.9 75 52.0 2.6 WNW | 302 4.8 0.00 0.11 57.9 76.3
9/16/19 - 2145 60.3 74 52.0 2.9 WNW | 300 5.0 0.00 0.11 57.9 76.3
9/16/19 - 2130 60.5 74 52.0 3.1 WNW | 297 5.3 0.00 0.11 57.9 76.3
9/16/19 - 2115 60.8 73 52.2 2.7 WNW | 302 4.4 0.00 0.11 57.9 76.3
9/16/19 - 2100 61.4 71 52.1 2.7 WNW | 288 5.3 0.00 0.11 57.9 76.3
9/16/19 - 2045 61.9 70 52.0 2.5 WNW | 295 4.4 0.00 0.11 57.9 76.3
9/16/19 - 2030 62.5 68 51.8 2.3 WNW | 283 5.0 0.00 0.11 57.9 76.3
9/16/19 - 2015 62.9 66 51.5 2.8 WNW | 295 5.9 0.00 0.11 57.9 76.3
9/16/19 - 2000 63.7 64 51.4 2.3 WNW | 297 3.9 0.00 0.11 57.9 76.3
9/16/19 - 1945 64.6 62 51.3 3.1 WNW | 290 5.5 0.00 0.11 57.9 76.3
9/16/19 - 1930 66.0 58 51.0 3.6 WNW | 289 6.1 0.00 0.11 57.9 76.3
9/16/19 - 1915 67.2 55 50.3 3.9 WNW | 290 6.8 0.00 0.11 57.9 76.3
9/16/19 - 1900 68.7 51 50.0 3.9 WNW | 292 7.9 0.00 0.11 57.9 76.3
9/16/19 - 1845 70.4 48 49.8 4.3 WNW | 284 7.7 0.00 0.11 57.9 76.3
9/16/19 - 1830 71.6 46 49.5 4.6 WNW | 283 7.7 0.00 0.11 57.9 76.3
9/16/19 - 1815 72.3 44 49.3 5.2 WNW | 285 9.4 0.00 0.11 57.9 76.3
9/16/19 - 1800 72.9 43 49.0 7.0 W | 268 12.1 0.00 0.11 57.9 76.3
9/16/19 - 1745 73.6 43 49.6 6.9 W | 271 14.7 0.00 0.11 57.9 76.3
9/16/19 - 1730 74.1 42 49.9 5.7 WNW | 286 11.4 0.00 0.11 57.9 76.3
9/16/19 - 1715 74.6 44 51.3 6.2 WNW | 283 12.1 0.00 0.11 57.9 76.3
9/16/19 - 1700 74.0 48 52.9 3.8 NNW | 332 9.4 0.00 0.11 57.9 76.3
9/16/19 - 1645 74.5 49 54.2 3.9 N | 354 10.5 0.00 0.11 57.9 76.3
9/16/19 - 1630 74.6 51 55.2 5.1 NNE | 18 12.3 0.00 0.11 57.9 76.3
9/16/19 - 1615 75.4 44 52.2 6.6 WNW | 289 18.4 0.00 0.11 57.9 76.3
9/16/19 - 1600 75.3 42 50.8 7.7 W | 274 14.2 0.00 0.11 57.9 76.0
9/16/19 - 1545 75.5 42 51.0 7.5 WNW | 285 13.4 0.00 0.11 57.9 76.0
Max 80.1 92 56.2 7.7 - 18.4 0.00 0.11 57.9 80.5
Avg 64.3 67 52.0 3.9 - 7.6 0.00 - - -
Min 52.6 33 48.0 0.6 - 2.0 0.00 0.00 52.4 57.4
Total - - - - - - 0.00 - - -